createdAt,value
2019-06-27T00:01:32.259Z,38.80
2019-06-27T00:04:03.996Z,32.20
2019-06-27T00:06:35.411Z,35.20
2019-06-27T00:09:09.401Z,34.80
2019-06-27T00:11:41.078Z,35.80
2019-06-27T00:14:12.578Z,33.00
2019-06-27T00:16:44.396Z,36.40
2019-06-27T00:19:17.507Z,33.40
2019-06-27T00:21:48.889Z,32.80
2019-06-27T00:24:20.378Z,33.00
2019-06-27T00:26:57.321Z,33.40
2019-06-27T00:29:25.255Z,34.40
2019-06-27T00:31:56.532Z,33.80
2019-06-27T00:34:28.214Z,32.40
2019-06-27T00:37:00.264Z,38.80
2019-06-27T00:39:31.856Z,36.20
2019-06-27T00:42:03.365Z,39.00
2019-06-27T00:44:35.729Z,37.00
2019-06-27T00:47:07.235Z,37.60
2019-06-27T00:49:39.192Z,31.40
2019-06-27T00:52:11.093Z,36.20
2019-06-27T00:54:42.681Z,37.60
2019-06-27T00:57:14.952Z,36.60
2019-06-27T00:59:49.401Z,36.40
2019-06-27T01:02:21.134Z,37.80
2019-06-27T01:04:52.638Z,36.20
2019-06-27T01:07:23.958Z,37.00
2019-06-27T01:09:55.556Z,36.00
2019-06-27T01:12:27.365Z,33.00
2019-06-27T01:14:58.880Z,34.00
2019-06-27T01:17:30.393Z,36.20
2019-06-27T01:20:02.387Z,35.20
2019-06-27T01:22:34.987Z,35.60
2019-06-27T01:25:07.050Z,40.80
2019-06-27T01:27:39.472Z,35.20
2019-06-27T01:30:11.458Z,36.20
2019-06-27T01:32:43.004Z,34.00
2019-06-27T01:35:14.881Z,36.00
2019-06-27T01:37:46.836Z,37.60
2019-06-27T01:40:18.737Z,40.20
2019-06-27T01:42:50.628Z,39.00
2019-06-27T01:45:28.049Z,36.20
2019-06-27T01:47:59.845Z,38.60
2019-06-27T01:50:31.888Z,38.80
2019-06-27T01:53:03.702Z,38.20
2019-06-27T01:55:34.944Z,38.40
2019-06-27T01:58:06.637Z,35.40
2019-06-27T02:00:38.132Z,40.20
2019-06-27T02:03:09.860Z,38.20
2019-06-27T02:05:41.128Z,40.60
2019-06-27T02:08:12.769Z,40.60
2019-06-27T02:10:44.470Z,40.00
2019-06-27T02:13:16.376Z,38.40
2019-06-27T02:15:48.366Z,40.00
2019-06-27T02:18:20.325Z,38.80
2019-06-27T02:20:52.180Z,40.60
2019-06-27T02:23:23.860Z,35.80
2019-06-27T02:25:55.122Z,38.00
2019-06-27T02:28:26.572Z,37.80
2019-06-27T02:30:57.962Z,38.40
2019-06-27T02:33:29.603Z,41.40
2019-06-27T02:36:01.006Z,39.40
2019-06-27T02:38:32.321Z,40.60
2019-06-27T02:41:04.344Z,36.80
2019-06-27T02:43:35.835Z,40.00
2019-06-27T02:46:07.548Z,41.40
2019-06-27T02:48:39.183Z,34.40
2019-06-27T02:51:11.556Z,40.20
2019-06-27T02:53:43.111Z,36.60
2019-06-27T02:56:14.439Z,39.20
2019-06-27T02:58:46.012Z,42.80
2019-06-27T03:01:17.845Z,39.40
2019-06-27T03:03:50.691Z,39.00
2019-06-27T03:06:22.641Z,41.40
2019-06-27T03:08:54.194Z,37.20
2019-06-27T03:11:25.726Z,39.20
2019-06-27T03:13:57.422Z,42.00
2019-06-27T03:16:30.152Z,33.40
2019-06-27T03:19:01.712Z,36.80
2019-06-27T03:21:33.445Z,40.80
2019-06-27T03:24:04.721Z,38.00
2019-06-27T03:26:36.166Z,39.80
2019-06-27T03:29:07.536Z,38.40
2019-06-27T03:31:39.213Z,37.40
2019-06-27T03:34:10.747Z,38.40
2019-06-27T03:36:42.351Z,38.00
2019-06-27T03:39:14.109Z,35.40
2019-06-27T03:41:45.615Z,38.20
2019-06-27T03:44:17.146Z,34.20
2019-06-27T03:46:49.616Z,40.20
2019-06-27T03:49:21.065Z,36.40
2019-06-27T03:51:52.779Z,39.40
2019-06-27T03:54:24.324Z,40.20
2019-06-27T03:56:56.307Z,39.20
2019-06-27T03:59:27.881Z,40.40
2019-06-27T04:01:59.649Z,40.20
2019-06-27T04:04:31.074Z,40.80
2019-06-27T04:07:02.475Z,41.20
2019-06-27T04:09:33.860Z,41.80
2019-06-27T04:12:05.241Z,43.00
2019-06-27T04:14:36.674Z,43.20
2019-06-27T04:17:08.243Z,39.60
2019-06-27T04:19:39.877Z,44.00
2019-06-27T04:22:11.847Z,44.80
2019-06-27T04:24:43.430Z,41.80
2019-06-27T04:27:15.191Z,44.20
2019-06-27T04:29:46.610Z,43.80
2019-06-27T04:32:18.037Z,41.20
2019-06-27T04:34:49.743Z,44.00
2019-06-27T04:37:21.375Z,43.20
2019-06-27T04:39:52.715Z,44.80
2019-06-27T04:42:24.647Z,43.00
2019-06-27T04:44:56.194Z,44.00
2019-06-27T04:47:27.533Z,43.60
2019-06-27T04:49:59.000Z,41.00
2019-06-27T04:52:30.528Z,37.20
2019-06-27T04:55:03.901Z,40.40
2019-06-27T04:57:35.235Z,43.60
2019-06-27T05:00:06.776Z,40.20
2019-06-27T05:02:39.620Z,41.00
2019-06-27T05:05:11.767Z,41.40
2019-06-27T05:07:43.301Z,38.00
2019-06-27T05:10:15.123Z,41.20
2019-06-27T05:12:46.722Z,38.60
2019-06-27T05:15:18.216Z,38.00
2019-06-27T05:17:49.987Z,38.20
2019-06-27T05:20:21.920Z,36.60
2019-06-27T05:22:55.157Z,36.60
2019-06-27T05:25:29.562Z,35.80
2019-06-27T05:28:02.052Z,36.40
2019-06-27T05:30:33.671Z,35.00
2019-06-27T05:33:05.122Z,34.40
2019-06-27T05:35:36.687Z,36.60
2019-06-27T05:38:08.019Z,33.00
2019-06-27T05:40:39.516Z,32.80
2019-06-27T05:43:11.296Z,32.80
2019-06-27T05:45:42.707Z,34.40
2019-06-27T05:48:16.638Z,34.40
2019-06-27T05:50:48.181Z,33.80
2019-06-27T05:53:20.352Z,32.40
2019-06-27T05:55:51.937Z,33.60
2019-06-27T05:58:23.675Z,34.40
2019-06-27T06:00:55.432Z,33.00
2019-06-27T06:03:27.683Z,34.80
2019-06-27T06:05:59.201Z,33.60
2019-06-27T06:08:30.491Z,30.00
2019-06-27T06:11:02.261Z,30.00
2019-06-27T06:13:34.160Z,30.80
2019-06-27T06:16:05.709Z,32.20
2019-06-27T06:18:38.881Z,29.60
2019-06-27T06:21:10.557Z,32.40
2019-06-27T06:23:42.513Z,30.40
2019-06-27T06:26:13.858Z,31.80
2019-06-27T06:28:45.243Z,31.60
2019-06-27T06:31:17.670Z,30.40
2019-06-27T06:33:49.605Z,32.40
2019-06-27T06:36:20.805Z,31.00
2019-06-27T06:38:57.955Z,32.00
2019-06-27T06:41:35.054Z,33.80
2019-06-27T06:44:22.770Z,34.20
2019-06-27T06:47:05.222Z,33.40
2019-06-27T06:52:36.015Z,34.40
2019-06-27T06:55:12.443Z,33.20
2019-06-27T06:57:45.422Z,32.60
2019-06-27T07:00:33.645Z,33.40
2019-06-27T07:03:05.351Z,35.20
2019-06-27T07:05:47.377Z,35.40
2019-06-27T07:08:31.375Z,36.00
2019-06-27T07:11:05.837Z,35.20
2019-06-27T07:13:42.965Z,32.60
2019-06-27T07:16:20.246Z,36.40
2019-06-27T07:19:11.206Z,33.40
2019-06-27T07:21:34.764Z,36.80
2019-06-27T07:24:06.404Z,39.00
2019-06-27T07:26:38.188Z,33.80
2019-06-27T07:29:09.968Z,37.80
2019-06-27T07:31:42.164Z,38.20
2019-06-27T07:34:13.486Z,38.60
2019-06-27T07:36:45.184Z,37.00
2019-06-27T07:39:16.815Z,39.00
2019-06-27T07:41:48.495Z,35.20
2019-06-27T07:44:21.427Z,35.20
2019-06-27T07:46:52.964Z,35.80
2019-06-27T07:49:24.507Z,41.80
2019-06-27T07:51:56.233Z,38.60
2019-06-27T07:54:28.048Z,40.20
2019-06-27T07:56:59.571Z,43.20
2019-06-27T07:59:31.109Z,41.40
2019-06-27T08:02:02.820Z,42.80
2019-06-27T08:04:34.528Z,41.80
2019-06-27T08:07:07.833Z,43.00
2019-06-27T08:09:40.261Z,40.20
2019-06-27T08:12:12.598Z,40.20
2019-06-27T08:14:44.277Z,42.20
2019-06-27T08:17:16.486Z,41.00
2019-06-27T08:19:49.161Z,41.60
2019-06-27T08:22:20.869Z,40.20
2019-06-27T08:24:53.378Z,38.80
2019-06-27T08:27:26.674Z,38.60
2019-06-27T08:29:59.582Z,36.20
2019-06-27T08:32:30.907Z,38.80
2019-06-27T08:35:02.321Z,37.60
2019-06-27T08:37:34.423Z,37.80
2019-06-27T08:40:06.977Z,38.40
2019-06-27T08:42:38.790Z,37.40
2019-06-27T08:45:11.622Z,31.60
2019-06-27T08:47:43.079Z,39.80
2019-06-27T08:50:15.351Z,35.00
2019-06-27T08:52:46.980Z,36.40
2019-06-27T08:55:18.967Z,35.80
2019-06-27T08:57:50.293Z,34.60
2019-06-27T09:00:22.104Z,37.40
2019-06-27T09:02:53.447Z,33.60
2019-06-27T09:05:24.732Z,32.80
2019-06-27T09:07:56.440Z,34.20
2019-06-27T09:10:27.838Z,32.20
2019-06-27T09:12:59.939Z,34.00
2019-06-27T09:15:31.603Z,27.80
2019-06-27T09:18:03.443Z,31.20
2019-06-27T09:20:34.935Z,29.00
2019-06-27T09:23:06.543Z,34.40
2019-06-27T09:25:38.581Z,31.60
2019-06-27T09:28:10.422Z,34.00
2019-06-27T09:30:42.384Z,37.00
2019-06-27T09:33:14.230Z,36.80
2019-06-27T09:35:45.733Z,36.60
2019-06-27T09:38:17.121Z,35.00
2019-06-27T09:40:48.887Z,37.40
2019-06-27T09:43:20.614Z,39.00
2019-06-27T09:45:52.291Z,40.00
2019-06-27T09:48:24.241Z,37.00
2019-06-27T09:50:56.078Z,37.60
2019-06-27T09:53:27.937Z,39.00
2019-06-27T09:55:59.475Z,37.20
2019-06-27T09:58:31.936Z,36.80
2019-06-27T10:01:06.175Z,36.40
2019-06-27T10:03:38.151Z,38.20
2019-06-27T10:06:09.776Z,38.00
2019-06-27T10:08:41.593Z,37.40
2019-06-27T10:11:13.052Z,38.60
2019-06-27T10:13:44.737Z,37.40
2019-06-27T10:16:16.474Z,35.00
2019-06-27T10:18:52.203Z,39.00
2019-06-27T10:21:25.622Z,37.40
2019-06-27T10:24:00.596Z,36.60
2019-06-27T10:26:32.977Z,35.20
2019-06-27T10:29:05.831Z,33.20
2019-06-27T10:31:37.676Z,34.80
2019-06-27T10:34:09.489Z,35.80
2019-06-27T10:36:41.048Z,32.60
2019-06-27T10:39:13.140Z,36.80
2019-06-27T10:41:45.996Z,34.60
2019-06-27T10:44:18.624Z,37.80
2019-06-27T10:46:50.842Z,30.40
2019-06-27T10:49:23.562Z,33.00
2019-06-27T10:51:55.716Z,34.00
2019-06-27T10:54:27.629Z,34.80
2019-06-27T10:56:59.993Z,35.20
2019-06-27T10:59:31.702Z,37.00
2019-06-27T11:02:05.868Z,36.40
2019-06-27T11:04:37.742Z,38.00
2019-06-27T11:07:09.171Z,35.40
2019-06-27T11:09:40.832Z,38.20
2019-06-27T11:12:12.640Z,32.80
2019-06-27T11:14:58.238Z,33.00
2019-06-27T11:17:18.223Z,32.80
2019-06-27T11:19:52.567Z,35.40
2019-06-27T11:22:23.618Z,33.40
2019-06-27T11:24:55.741Z,34.60
2019-06-27T11:27:29.349Z,31.80
2019-06-27T11:30:01.542Z,36.60
2019-06-27T11:32:33.762Z,32.60
2019-06-27T11:35:05.512Z,35.00
2019-06-27T11:37:37.875Z,34.00
2019-06-27T11:40:12.400Z,32.00
2019-06-27T11:42:43.981Z,31.80
2019-06-27T11:45:16.399Z,35.80
2019-06-27T11:47:48.903Z,35.80
2019-06-27T11:50:20.822Z,34.60
2019-06-27T11:52:52.524Z,37.20
2019-06-27T11:55:24.496Z,32.00
2019-06-27T11:57:57.373Z,37.60
2019-06-27T12:00:29.480Z,35.00
2019-06-27T12:03:01.535Z,37.20
2019-06-27T12:05:33.226Z,33.20
2019-06-27T12:08:05.162Z,32.60
2019-06-27T12:10:37.626Z,36.20
2019-06-27T12:13:10.163Z,38.00
2019-06-27T12:15:42.516Z,39.40
2019-06-27T12:18:14.660Z,42.00
2019-06-27T12:20:48.759Z,44.00
2019-06-27T12:23:21.841Z,40.20
2019-06-27T12:25:53.767Z,41.40
2019-06-27T12:28:26.925Z,41.00
2019-06-27T12:30:58.593Z,40.80
2019-06-27T12:33:30.055Z,40.20
2019-06-27T12:36:01.724Z,41.00
2019-06-27T12:38:33.205Z,40.80
2019-06-27T12:41:05.644Z,41.20
2019-06-27T12:43:36.808Z,40.80
2019-06-27T12:46:08.293Z,39.80
2019-06-27T12:48:40.202Z,41.80
2019-06-27T12:51:11.650Z,39.40
2019-06-27T12:53:43.089Z,41.80
2019-06-27T12:56:14.711Z,38.40
2019-06-27T12:58:47.597Z,37.40
2019-06-27T13:01:19.909Z,38.20
2019-06-27T13:03:51.254Z,40.20
2019-06-27T13:06:22.551Z,38.80
2019-06-27T13:08:54.123Z,40.00
2019-06-27T13:11:25.987Z,32.40
2019-06-27T13:13:57.693Z,41.00
2019-06-27T13:16:31.122Z,36.00
2019-06-27T13:19:02.407Z,39.20
2019-06-27T13:21:34.197Z,39.80
2019-06-27T13:24:05.978Z,33.00
2019-06-27T13:26:37.688Z,38.20
2019-06-27T13:29:09.271Z,34.60
2019-06-27T13:31:40.961Z,40.00
2019-06-27T13:34:13.322Z,42.40
2019-06-27T13:36:44.889Z,44.40
2019-06-27T13:39:18.030Z,44.40
2019-06-27T13:41:49.801Z,43.60
2019-06-27T13:44:22.399Z,47.00
2019-06-27T13:46:54.050Z,46.00
2019-06-27T13:49:26.253Z,47.80
2019-06-27T13:51:58.044Z,46.80
2019-06-27T13:54:29.679Z,52.40
2019-06-27T13:57:01.206Z,51.40
2019-06-27T13:59:33.066Z,50.00
2019-06-27T14:02:04.715Z,53.40
2019-06-27T14:04:36.170Z,63.40
2019-06-27T14:07:07.594Z,61.20
2019-06-27T14:09:52.340Z,57.40
2019-06-27T14:12:11.724Z,57.40
2019-06-27T14:14:58.844Z,51.40
2019-06-27T14:17:16.134Z,54.20
2019-06-27T14:19:50.791Z,47.00
2019-06-27T14:22:32.973Z,51.20
2019-06-27T14:24:54.261Z,50.60
2019-06-27T14:27:25.617Z,58.80
2019-06-27T14:29:57.219Z,66.00
2019-06-27T14:32:29.672Z,69.20
2019-06-27T14:35:14.691Z,66.80
2019-06-27T14:37:34.245Z,70.00
2019-06-27T14:40:05.750Z,75.00
2019-06-27T14:42:38.217Z,77.40
2019-06-27T14:45:09.847Z,72.20
2019-06-27T14:47:41.180Z,77.80
2019-06-27T14:50:13.116Z,73.00
2019-06-27T14:52:44.781Z,77.20
2019-06-27T14:55:16.205Z,76.20
2019-06-27T14:57:48.402Z,72.40
2019-06-27T15:00:20.444Z,67.80
2019-06-27T15:02:51.709Z,69.20
2019-06-27T15:05:32.576Z,81.60
2019-06-27T15:07:56.298Z,81.20
2019-06-27T15:10:27.830Z,71.80
2019-06-27T15:12:59.225Z,76.20
2019-06-27T15:15:30.494Z,84.00
2019-06-27T15:18:02.115Z,78.40
2019-06-27T15:20:33.641Z,73.00
2019-06-27T15:23:05.019Z,79.00
2019-06-27T15:25:36.324Z,79.80
2019-06-27T15:28:08.031Z,81.20
2019-06-27T15:30:40.051Z,87.40
2019-06-27T15:33:11.401Z,81.40
2019-06-27T15:35:51.774Z,86.40
2019-06-27T15:38:18.662Z,87.40
2019-06-27T15:40:50.415Z,79.20
2019-06-27T15:43:21.656Z,86.20
2019-06-27T15:45:53.116Z,89.20
2019-06-27T15:48:24.817Z,100.20
2019-06-27T15:50:56.358Z,94.20
2019-06-27T15:53:27.897Z,86.00
2019-06-27T15:55:59.489Z,88.20
2019-06-27T15:58:32.054Z,90.80
2019-06-27T16:01:03.944Z,87.40
2019-06-27T16:03:35.799Z,92.60
2019-06-27T16:06:09.768Z,86.80
2019-06-27T16:08:40.381Z,88.80
2019-06-27T16:11:12.008Z,88.80
2019-06-27T16:13:43.484Z,85.20
2019-06-27T16:16:14.984Z,80.60
2019-06-27T16:18:46.542Z,82.00
2019-06-27T16:21:17.914Z,85.60
2019-06-27T16:23:49.408Z,85.40
2019-06-27T16:26:20.910Z,82.80
2019-06-27T16:28:52.390Z,81.60
2019-06-27T16:31:24.310Z,75.80
2019-06-27T16:33:55.984Z,81.20
2019-06-27T16:36:28.314Z,80.00
2019-06-27T16:38:59.744Z,72.00
2019-06-27T16:41:31.168Z,76.40
2019-06-27T16:44:02.794Z,81.20
2019-06-27T16:46:34.387Z,78.60
2019-06-27T16:49:05.966Z,83.40
2019-06-27T16:51:38.140Z,81.20
2019-06-27T16:54:09.946Z,77.00
2019-06-27T16:56:41.405Z,79.80
2019-06-27T16:59:13.257Z,75.60
2019-06-27T17:01:45.188Z,70.40
2019-06-27T17:04:16.533Z,79.00
2019-06-27T17:06:48.091Z,81.00
2019-06-27T17:09:19.805Z,77.60
2019-06-27T17:11:51.511Z,72.80
2019-06-27T17:27:45.149Z,65.40
2019-06-27T18:33:31.349Z,53.60
2019-06-27T18:36:04.379Z,53.00
2019-06-27T18:38:35.932Z,52.00
2019-06-27T18:41:07.509Z,54.80
2019-06-27T18:43:39.116Z,56.60
2019-06-27T18:46:10.721Z,55.80
2019-06-27T18:48:42.195Z,51.80
2019-06-27T18:51:13.762Z,54.20
2019-06-27T18:53:45.547Z,53.20
2019-06-27T18:56:17.699Z,51.20
2019-06-27T18:58:49.025Z,50.20
2019-06-27T19:01:20.373Z,50.20
2019-06-27T19:03:51.803Z,50.20
2019-06-27T19:06:23.732Z,51.20
2019-06-27T19:08:55.690Z,50.00
2019-06-27T19:11:27.221Z,50.80
2019-06-27T19:13:58.526Z,49.20
2019-06-27T19:16:30.053Z,50.60
2019-06-27T19:19:03.187Z,50.20
2019-06-27T19:21:53.473Z,51.60
2019-06-27T19:24:32.543Z,51.40
2019-06-27T19:27:04.385Z,51.20
2019-06-27T19:29:35.751Z,48.20
2019-06-27T19:32:07.256Z,49.20
2019-06-27T19:34:38.615Z,51.60
2019-06-27T19:37:10.300Z,49.00
2019-06-27T19:39:42.090Z,51.00
2019-06-27T19:42:13.683Z,48.00
2019-06-27T19:44:45.054Z,50.80
2019-06-27T19:47:16.661Z,51.80
2019-06-27T19:49:47.927Z,49.20
2019-06-27T19:52:19.214Z,49.40
2019-06-27T19:54:50.767Z,50.00
2019-06-27T19:57:22.999Z,51.00
2019-06-27T19:59:54.582Z,50.80
2019-06-27T20:02:25.950Z,50.00
2019-06-27T20:04:57.599Z,51.20
2019-06-27T20:07:29.618Z,49.80
2019-06-27T20:10:01.306Z,52.20
2019-06-27T20:12:32.569Z,52.20
2019-06-27T20:15:04.564Z,52.00
2019-06-27T20:17:35.952Z,51.80
2019-06-27T20:20:07.911Z,48.60
2019-06-27T20:22:39.196Z,52.00
2019-06-27T20:25:10.510Z,48.40
2019-06-27T20:27:42.059Z,51.00
2019-06-27T20:30:13.476Z,50.40
2019-06-27T20:32:44.932Z,49.60
2019-06-27T20:35:16.640Z,49.00
2019-06-27T20:37:49.073Z,49.40
2019-06-27T20:40:21.322Z,51.00
2019-06-27T20:42:53.265Z,51.20
2019-06-27T20:45:25.279Z,50.40
2019-06-27T20:47:57.050Z,50.60
2019-06-27T20:50:28.930Z,47.20
2019-06-27T20:53:00.431Z,52.00
2019-06-27T20:55:31.770Z,49.40
2019-06-27T20:58:03.056Z,49.40
2019-06-27T21:00:35.126Z,50.20
2019-06-27T21:03:06.766Z,51.20
2019-06-27T21:05:39.535Z,49.00
2019-06-27T21:08:11.534Z,49.20
2019-06-27T21:10:43.480Z,50.00
2019-06-27T21:13:14.983Z,48.40
2019-06-27T21:15:50.129Z,45.80
2019-06-27T21:18:19.505Z,53.00
2019-06-27T21:20:50.816Z,50.80
2019-06-27T21:23:22.266Z,51.20
2019-06-27T21:25:54.243Z,48.40
2019-06-27T21:28:25.805Z,49.20
2019-06-27T21:30:57.181Z,47.60
2019-06-27T21:33:28.470Z,47.00
2019-06-27T21:35:59.951Z,46.00
2019-06-27T21:38:31.782Z,46.00
2019-06-27T21:41:03.640Z,46.60
2019-06-27T21:43:52.569Z,48.60
2019-06-27T21:46:23.878Z,47.00
2019-06-27T21:48:55.206Z,46.00
2019-06-27T21:51:27.499Z,46.20
2019-06-27T21:53:59.019Z,47.80
2019-06-27T21:56:30.557Z,48.00
2019-06-27T21:59:01.818Z,47.40
2019-06-27T22:01:33.873Z,50.00
2019-06-27T22:04:05.220Z,48.60
2019-06-27T22:06:36.545Z,48.20
2019-06-27T22:09:23.518Z,48.20
2019-06-27T22:11:42.181Z,48.20
2019-06-27T22:14:13.575Z,48.60
2019-06-27T22:16:45.070Z,50.20
2019-06-27T22:19:17.472Z,50.00
2019-06-27T22:21:49.013Z,47.00
2019-06-27T22:24:20.499Z,50.20
2019-06-27T22:26:52.040Z,48.40
2019-06-27T22:29:23.325Z,46.20
2019-06-27T22:31:55.856Z,46.80
2019-06-27T22:34:27.254Z,49.40
2019-06-27T22:37:04.337Z,49.00
2019-06-27T22:39:53.812Z,47.40
2019-06-27T22:42:42.855Z,49.40
2019-06-27T22:45:32.430Z,47.80
2019-06-27T22:48:15.275Z,46.20
2019-06-27T22:50:59.746Z,50.80
2019-06-27T22:53:34.132Z,49.20
2019-06-27T22:56:05.921Z,46.60
2019-06-27T22:58:37.260Z,49.00
2019-06-27T23:01:08.657Z,44.60
2019-06-27T23:03:40.327Z,50.20
2019-06-27T23:06:12.018Z,49.00
2019-06-27T23:08:43.564Z,49.40
2019-06-27T23:11:16.233Z,50.00
2019-06-27T23:13:48.953Z,48.40
2019-06-27T23:16:21.407Z,51.00
2019-06-27T23:18:52.751Z,49.20
2019-06-27T23:21:24.031Z,50.00
2019-06-27T23:23:55.352Z,50.40
2019-06-27T23:26:26.830Z,49.60
2019-06-27T23:28:58.542Z,50.40
2019-06-27T23:31:29.973Z,48.60
2019-06-27T23:34:01.383Z,48.40
2019-06-27T23:36:36.687Z,48.60
2019-06-27T23:39:08.298Z,50.00
2019-06-27T23:41:39.974Z,51.20
2019-06-27T23:44:11.614Z,48.20
2019-06-27T23:46:43.575Z,47.60
2019-06-27T23:49:15.454Z,46.60
2019-06-27T23:51:47.069Z,47.40
2019-06-27T23:54:18.599Z,51.60
2019-06-27T23:56:50.236Z,48.40
2019-06-27T23:59:21.768Z,50.20
